Time;durP1;ratioP1;P1;durP2;ratioP2;P2;SDS_P1;SDS_P2;PMS_P1;PMS_P2;Temp;Humidity;BMP_temperature;BMP_pressure;BME280_temperature;BME280_humidity;BME280_pressure;Samples;Min_cycle;Max_cycle;Signal;HPM_P1;HPM_P2
2023/04/17 00:01:17;;;;;;;44.30;25.50;;;;;;;18.85;44.03;100750.42;107967;1254;62314;-66
2023/04/17 00:03:45;;;;;;;40.70;25.80;;;;;;;18.78;44.18;100749.04;107970;1258;59652;-65
2023/04/17 00:06:15;;;;;;;39.80;26.10;;;;;;;18.73;44.32;100747.72;108001;1256;72319;-65
2023/04/17 00:08:43;;;;;;;47.30;27.10;;;;;;;18.92;44.15;100752.31;107991;1254;71155;-66
2023/04/17 00:11:11;;;;;;;45.60;26.70;;;;;;;19.04;43.81;100753.30;107915;1255;73824;-66
2023/04/17 00:13:42;;;;;;;39.30;23.90;;;;;;;19.12;43.71;100751.57;108037;1255;60842;-65
2023/04/17 00:16:12;;;;;;;39.30;25.60;;;;;;;19.11;43.71;100755.54;108064;1256;61388;-65
2023/04/17 00:18:41;;;;;;;47.40;26.20;;;;;;;19.27;43.45;100756.16;108077;1254;72413;-65
2023/04/17 00:21:09;;;;;;;37.80;24.90;;;;;;;19.32;43.32;100752.98;107904;1254;70136;-65
2023/04/17 00:23:38;;;;;;;43.10;25.80;;;;;;;19.38;43.14;100755.47;107930;1257;74011;-65
2023/04/17 00:26:06;;;;;;;43.70;25.30;;;;;;;19.46;42.96;100755.64;108128;1256;61969;-65
2023/04/17 00:28:34;;;;;;;39.30;24.70;;;;;;;19.45;42.94;100758.35;107991;1258;60234;-65
2023/04/17 00:31:03;;;;;;;42.20;26.20;;;;;;;19.56;42.81;100756.96;108000;1254;73374;-66
2023/04/17 00:33:31;;;;;;;41.90;25.50;;;;;;;19.42;42.99;100753.77;108116;1254;70220;-64
2023/04/17 00:35:59;;;;;;;43.00;25.10;;;;;;;19.23;43.45;100754.05;108013;1254;71142;-62
2023/04/17 00:38:28;;;;;;;38.40;24.70;;;;;;;19.41;43.09;100755.77;107923;1260;61484;-65
2023/04/17 00:40:56;;;;;;;39.20;23.60;;;;;;;19.64;42.73;100755.89;107987;1255;61418;-66
2023/04/17 00:43:24;;;;;;;41.60;24.80;;;;;;;20.02;42.14;100760.98;108082;1258;72638;-66
2023/04/17 00:45:52;;;;;;;33.50;22.50;;;;;;;19.94;42.09;100756.66;108016;1254;70372;-64
2023/04/17 00:48:22;;;;;;;42.60;24.00;;;;;;;19.81;42.29;100752.52;108064;1259;72810;-66
2023/04/17 00:50:51;;;;;;;41.90;24.10;;;;;;;19.80;42.37;100752.02;108095;1255;61536;-64
2023/04/17 00:53:19;;;;;;;38.60;23.50;;;;;;;20.02;42.03;100754.52;107924;1255;59354;-65
2023/04/17 00:55:47;;;;;;;37.10;23.40;;;;;;;19.92;42.28;100751.62;107903;1255;72359;-65
2023/04/17 00:58:15;;;;;;;37.20;23.00;;;;;;;19.79;42.42;100749.95;107815;1255;71487;-65
2023/04/17 01:00:44;;;;;;;37.30;23.80;;;;;;;19.74;42.62;100751.04;107938;1256;73860;-66
2023/04/17 01:03:13;;;;;;;40.60;22.90;;;;;;;19.84;42.52;100754.98;108059;1256;60995;-65
2023/04/17 01:05:43;;;;;;;35.10;22.70;;;;;;;19.79;42.64;100751.26;108146;1254;61562;-65
2023/04/17 01:08:11;;;;;;;33.50;22.20;;;;;;;19.88;42.47;100750.95;107889;1254;72064;-65
2023/04/17 01:10:39;;;;;;;38.10;22.50;;;;;;;19.90;42.51;100749.61;107887;1260;71524;-66
2023/04/17 01:13:08;;;;;;;32.10;20.10;;;;;;;19.76;42.72;100748.37;107866;1256;70869;-66
2023/04/17 01:15:36;;;;;;;38.80;21.90;;;;;;;19.95;42.49;100749.30;108047;1255;61431;-66
2023/04/17 01:18:05;;;;;;;38.00;22.20;;;;;;;19.39;43.45;100750.03;108070;1254;60933;-66
2023/04/17 01:20:33;;;;;;;35.60;21.60;;;;;;;19.42;43.47;100751.44;107904;1254;74013;-66
2023/04/17 01:23:01;;;;;;;30.80;20.70;;;;;;;19.40;43.60;100748.56;107991;1258;71022;-63
2023/04/17 01:25:30;;;;;;;32.10;19.90;;;;;;;19.53;43.43;100753.56;108003;1259;72224;-64
2023/04/17 01:27:58;;;;;;;32.60;21.80;;;;;;;19.65;43.17;100752.09;107906;1256;59622;-66
2023/04/17 01:30:28;;;;;;;34.50;19.40;;;;;;;19.66;43.19;100751.20;107862;1256;59917;-66
2023/04/17 01:33:02;;;;;;;33.80;20.90;;;;;;;19.69;43.02;100753.10;107908;1255;72097;-64
2023/04/17 01:35:30;;;;;;;41.10;21.70;;;;;;;19.56;43.24;100755.42;107931;1254;71083;-64
2023/04/17 01:37:58;;;;;;;33.50;22.10;;;;;;;19.75;42.89;100756.84;108080;1256;73004;-65
2023/04/17 01:40:27;;;;;;;46.70;23.90;;;;;;;19.77;42.75;100754.94;108262;1256;61084;-65
2023/04/17 01:42:56;;;;;;;37.80;21.90;;;;;;;19.73;42.76;100753.77;108291;1256;60019;-66
2023/04/17 01:45:24;;;;;;;33.50;20.90;;;;;;;19.79;42.62;100753.88;108280;1256;72841;-66
2023/04/17 01:47:52;;;;;;;36.30;21.20;;;;;;;19.71;42.78;100749.80;108015;1256;68512;-62
2023/04/17 01:50:21;;;;;;;34.90;21.00;;;;;;;19.64;42.95;100748.77;108277;1253;72119;-65
2023/04/17 01:52:49;;;;;;;33.60;20.80;;;;;;;19.76;42.85;100751.95;108218;1253;62378;-65
2023/04/17 01:55:17;;;;;;;33.20;20.50;;;;;;;19.91;42.62;100749.00;108112;1253;59513;-67
2023/04/17 01:57:46;;;;;;;31.40;19.20;;;;;;;19.96;42.47;100750.25;108212;1252;73456;-67
2023/04/17 02:00:14;;;;;;;47.50;21.20;;;;;;;19.97;42.33;100755.59;108205;1253;69466;-65
2023/04/17 02:02:43;;;;;;;34.70;20.90;;;;;;;20.01;42.31;100757.13;108237;1256;72873;-67
2023/04/17 02:05:11;;;;;;;33.20;19.60;;;;;;;20.15;42.09;100751.85;108226;1253;60550;-68
2023/04/17 02:07:39;;;;;;;34.70;19.90;;;;;;;20.10;42.15;100750.44;108224;1252;61401;-66
2023/04/17 02:10:08;;;;;;;36.70;20.30;;;;;;;19.91;42.40;100755.04;108157;1253;73907;-66
2023/04/17 02:12:37;;;;;;;30.00;19.30;;;;;;;20.00;42.32;100755.53;108233;1253;70470;-64
2023/04/17 02:15:05;;;;;;;31.40;19.40;;;;;;;20.28;41.87;100755.83;108134;1253;71985;-66
2023/04/17 02:17:34;;;;;;;35.00;19.20;;;;;;;20.53;41.27;100756.81;108148;1253;60833;-66
2023/04/17 02:20:05;;;;;;;31.20;19.00;;;;;;;20.35;41.52;100756.21;108231;1253;60346;-65
2023/04/17 02:22:33;;;;;;;31.40;18.20;;;;;;;20.11;41.97;100760.19;108181;1253;72012;-66
2023/04/17 02:25:01;;;;;;;30.40;17.60;;;;;;;20.18;41.96;100761.84;108169;1252;68466;-65
2023/04/17 02:27:30;;;;;;;30.70;17.30;;;;;;;20.13;41.83;100761.64;108186;1252;73180;-66
2023/04/17 02:29:58;;;;;;;26.60;16.40;;;;;;;20.28;41.76;100763.62;108127;1252;60257;-66
2023/04/17 02:32:25;;;;;;;27.30;16.50;;;;;;;20.41;41.48;100765.98;108029;1253;61109;-65
2023/04/17 02:34:55;;;;;;;21.90;15.90;;;;;;;20.67;40.95;100767.25;108137;1253;73295;-65
2023/04/17 02:37:23;;;;;;;30.00;16.00;;;;;;;20.72;40.89;100765.67;108104;1252;69948;-66
2023/04/17 02:39:52;;;;;;;25.00;16.60;;;;;;;20.69;40.77;100762.69;108059;1252;72993;-66
2023/04/17 02:42:20;;;;;;;24.90;16.00;;;;;;;20.44;41.21;100769.67;108154;1252;60327;-67
2023/04/17 02:44:48;;;;;;;32.40;15.60;;;;;;;20.02;41.92;100771.78;108192;1253;60145;-66
2023/04/17 02:47:16;;;;;;;27.30;16.00;;;;;;;20.27;41.45;100772.64;108188;1253;70746;-66
2023/04/17 02:49:44;;;;;;;20.80;14.30;;;;;;;20.09;41.67;100772.94;108169;1253;70072;-65
2023/04/17 02:52:12;;;;;;;23.90;14.80;;;;;;;20.17;41.52;100769.05;108171;1254;72857;-65
2023/04/17 02:54:41;;;;;;;20.50;13.50;;;;;;;19.93;41.77;100774.17;108104;1252;62419;-65
2023/04/17 02:57:09;;;;;;;24.40;14.20;;;;;;;19.54;42.24;100774.70;108084;1258;60156;-64
2023/04/17 02:59:37;;;;;;;21.30;14.30;;;;;;;19.78;41.77;100778.33;108019;1252;71938;-66
2023/04/17 03:02:05;;;;;;;24.10;13.50;;;;;;;19.96;41.53;100778.65;107941;1253;71592;-64
2023/04/17 03:04:37;;;;;;;25.00;14.00;;;;;;;19.81;41.63;100779.79;107940;1253;73071;-66
2023/04/17 03:07:09;;;;;;;21.90;13.10;;;;;;;19.80;41.69;100790.02;108059;1253;61327;-65
2023/04/17 03:09:38;;;;;;;24.50;13.20;;;;;;;19.88;41.22;100787.90;108106;1253;60923;-65
2023/04/17 03:12:06;;;;;;;24.10;13.10;;;;;;;19.83;41.23;100786.96;107980;1253;73256;-65
2023/04/17 03:14:34;;;;;;;20.60;12.40;;;;;;;20.14;40.78;100791.01;108002;1253;71605;-66
2023/04/17 03:17:02;;;;;;;17.10;11.60;;;;;;;20.15;40.69;100796.95;108131;1253;72007;-66
2023/04/17 03:19:30;;;;;;;19.90;12.20;;;;;;;20.29;40.17;100794.07;108049;1253;61186;-67
2023/04/17 03:22:00;;;;;;;19.20;11.00;;;;;;;20.40;39.87;100794.23;108059;1252;59728;-66
2023/04/17 03:24:30;;;;;;;18.00;12.20;;;;;;;20.70;39.44;100797.77;108092;1253;73472;-67
2023/04/17 03:26:59;;;;;;;19.80;11.50;;;;;;;20.64;39.11;100801.36;108040;1253;69490;-66
2023/04/17 03:29:30;;;;;;;;;;;;;;;20.38;39.45;100809.35;108051;1253;72907;-65
2023/04/17 03:31:58;;;;;;;20.10;11.10;;;;;;;20.55;39.22;100806.81;107954;1253;60553;-66
2023/04/17 03:34:27;;;;;;;19.00;11.90;;;;;;;20.60;39.16;100810.38;108159;1253;60322;-66
2023/04/17 03:36:58;;;;;;;19.50;12.00;;;;;;;20.65;38.76;100817.38;108045;1253;72926;-61
2023/04/17 03:39:26;;;;;;;25.10;12.10;;;;;;;20.38;39.28;100819.11;108149;1253;69877;-65
2023/04/17 03:41:54;;;;;;;20.20;10.80;;;;;;;20.58;38.93;100817.80;107954;1253;72462;-63
2023/04/17 03:44:22;;;;;;;19.10;10.50;;;;;;;20.73;38.38;100825.02;108128;1253;60316;-63
2023/04/17 03:46:50;;;;;;;20.50;10.90;;;;;;;20.60;38.27;100826.48;108125;1253;60515;-64
2023/04/17 03:49:18;;;;;;;18.40;9.60;;;;;;;20.73;38.06;100826.63;108195;1253;72726;-66
2023/04/17 03:51:48;;;;;;;21.80;10.70;;;;;;;20.71;38.24;100826.39;107965;1253;70313;-66
2023/04/17 03:54:18;;;;;;;23.20;11.00;;;;;;;20.58;38.10;100825.15;108089;1253;72753;-66
2023/04/17 03:56:46;;;;;;;22.80;10.90;;;;;;;20.48;38.49;100833.45;107976;1259;62054;-66
2023/04/17 03:59:14;;;;;;;18.70;10.20;;;;;;;20.44;38.42;100828.93;107968;1254;60911;-66
2023/04/17 04:01:46;;;;;;;17.20;10.50;;;;;;;20.51;38.15;100827.92;108101;1253;71913;-66
2023/04/17 04:04:18;;;;;;;20.40;10.40;;;;;;;20.66;38.00;100831.38;108162;1253;70867;-67
2023/04/17 04:06:48;;;;;;;17.70;10.10;;;;;;;20.67;37.79;100834.52;107914;1253;70977;-65
2023/04/17 04:09:19;;;;;;;19.30;10.70;;;;;;;20.86;37.43;100833.44;107983;1254;62299;-66
2023/04/17 04:11:47;;;;;;;16.30;9.50;;;;;;;20.81;37.19;100831.61;108235;1253;60477;-66
2023/04/17 04:14:15;;;;;;;18.40;9.30;;;;;;;20.54;37.42;100833.27;107948;1254;74786;-66
2023/04/17 04:16:45;;;;;;;17.70;8.60;;;;;;;20.82;37.12;100827.46;107962;1253;70727;-67
2023/04/17 04:19:14;;;;;;;16.50;8.30;;;;;;;20.98;36.63;100832.39;108140;1253;73555;-67
2023/04/17 04:21:43;;;;;;;18.00;8.80;;;;;;;20.93;36.24;100832.41;107949;1253;60420;-66
2023/04/17 04:24:13;;;;;;;19.80;9.40;;;;;;;21.00;36.56;100833.13;108145;1257;60274;-67
2023/04/17 04:26:42;;;;;;;18.00;8.20;;;;;;;20.79;36.07;100837.50;108170;1254;74089;-65
2023/04/17 04:29:12;;;;;;;14.70;8.10;;;;;;;20.74;36.04;100843.35;108156;1253;71607;-67
2023/04/17 04:31:49;;;;;;;19.60;8.20;;;;;;;20.54;36.44;100847.68;108191;1257;72863;-65
2023/04/17 04:34:20;;;;;;;16.80;7.70;;;;;;;20.93;35.83;100840.96;107955;1253;60585;-67
2023/04/17 04:36:51;;;;;;;14.70;7.80;;;;;;;21.18;35.20;100842.08;107887;1255;60421;-66
2023/04/17 04:39:36;;;;;;;16.20;7.30;;;;;;;20.97;35.03;100846.38;108125;1256;75131;-65
2023/04/17 04:42:08;;;;;;;18.80;7.40;;;;;;;20.83;35.22;100843.80;108185;1256;69641;-66
2023/04/17 04:45:06;;;;;;;16.20;7.00;;;;;;;20.89;34.97;100848.19;107846;1253;72485;-66
2023/04/17 04:47:35;;;;;;;12.90;7.20;;;;;;;20.97;34.80;100852.26;108129;1254;60850;-64
2023/04/17 04:50:04;;;;;;;12.60;7.00;;;;;;;20.69;34.78;100857.38;108192;1253;60406;-66
2023/04/17 04:52:32;;;;;;;14.10;6.90;;;;;;;20.95;34.54;100854.21;107932;1253;74970;-66
2023/04/17 04:55:04;;;;;;;13.30;6.70;;;;;;;21.11;34.30;100852.56;108161;1256;69005;-65
2023/04/17 04:57:33;;;;;;;15.00;6.90;;;;;;;21.14;34.08;100852.91;108140;1253;72268;-66
2023/04/17 05:00:05;;;;;;;12.50;6.80;;;;;;;21.23;33.97;100849.05;108119;1253;61657;-66
2023/04/17 05:02:38;;;;;;;13.60;6.90;;;;;;;21.21;34.18;100849.73;108104;1253;60465;-66
2023/04/17 05:05:09;;;;;;;13.60;6.40;;;;;;;21.20;33.80;100850.39;108117;1256;72637;-67
2023/04/17 05:07:39;;;;;;;16.20;6.50;;;;;;;21.19;33.60;100847.58;108240;1253;70457;-66
2023/04/17 05:10:09;;;;;;;16.20;6.40;;;;;;;21.21;33.18;100851.17;108143;1253;72993;-66
2023/04/17 05:12:41;;;;;;;11.90;5.60;;;;;;;21.26;32.73;100853.46;108058;1254;62190;-66
2023/04/17 05:15:10;;;;;;;14.20;5.60;;;;;;;21.44;32.60;100855.64;108200;1254;61241;-67
2023/04/17 05:17:38;;;;;;;12.70;5.70;;;;;;;21.33;32.42;100855.83;108095;1257;74103;-67
2023/04/17 05:20:17;;;;;;;8.70;5.50;;;;;;;21.10;32.48;100858.34;108093;1253;71567;-66
2023/04/17 05:22:51;;;;;;;9.70;5.50;;;;;;;21.60;32.12;100858.60;108168;1256;73024;-66
2023/04/17 05:25:19;;;;;;;12.60;6.00;;;;;;;21.78;31.68;100857.46;108044;1252;61908;-65
2023/04/17 05:27:47;;;;;;;16.50;5.10;;;;;;;21.73;31.75;100860.15;108049;1254;60338;-67
2023/04/17 05:30:16;;;;;;;11.40;5.40;;;;;;;21.71;31.45;100862.50;108210;1255;71946;-66
2023/04/17 05:32:47;;;;;;;16.20;5.70;;;;;;;21.95;31.36;100864.98;108185;1253;68464;-67
2023/04/17 05:35:41;;;;;;;12.30;5.30;;;;;;;22.03;31.10;100872.13;108150;1254;72735;-67
2023/04/17 05:38:09;;;;;;;12.80;4.90;;;;;;;22.02;30.84;100872.14;108022;1258;60958;-67
2023/04/17 05:40:37;;;;;;;12.90;5.70;;;;;;;22.00;30.49;100876.86;108198;1256;60511;-67
2023/04/17 05:43:07;;;;;;;10.20;5.10;;;;;;;22.18;30.41;100878.90;108028;1252;74610;-66
2023/04/17 05:45:35;;;;;;;17.20;5.10;;;;;;;22.39;30.18;100882.73;108210;1253;71230;-64
2023/04/17 05:48:07;;;;;;;10.90;5.30;;;;;;;22.58;29.98;100888.67;108003;1253;72746;-64
2023/04/17 05:50:36;;;;;;;12.50;5.30;;;;;;;22.50;29.48;100884.25;107984;1257;60828;-66
2023/04/17 05:53:04;;;;;;;9.80;4.90;;;;;;;22.49;29.47;100886.80;108029;1253;61216;-66
2023/04/17 05:55:36;;;;;;;13.10;4.60;;;;;;;22.53;29.56;100882.23;108194;1254;74824;-66
2023/04/17 05:58:05;;;;;;;9.90;4.70;;;;;;;22.46;29.75;100880.27;108115;1257;71508;-66
2023/04/17 06:00:51;;;;;;;12.20;4.90;;;;;;;22.33;29.50;100882.83;108113;1256;73650;-65
2023/04/17 06:03:19;;;;;;;11.20;4.40;;;;;;;22.42;29.55;100879.48;107941;1254;60439;-67
2023/04/17 06:05:51;;;;;;;8.60;4.50;;;;;;;22.63;29.06;100876.09;108043;1256;61495;-66
2023/04/17 06:08:22;;;;;;;11.10;5.00;;;;;;;22.52;29.21;100883.20;107924;1255;74855;-66
2023/04/17 06:10:51;;;;;;;11.00;4.80;;;;;;;22.62;28.82;100881.02;107983;1253;71321;-66
2023/04/17 06:13:20;;;;;;;10.70;5.20;;;;;;;22.47;28.57;100885.54;108007;1254;73301;-66
2023/04/17 06:15:50;;;;;;;13.10;5.30;;;;;;;22.61;28.87;100888.60;107957;1254;60544;-67
2023/04/17 06:18:18;;;;;;;13.90;4.90;;;;;;;22.73;28.55;100886.58;108051;1254;60434;-67
2023/04/17 06:20:46;;;;;;;12.00;4.80;;;;;;;22.82;28.68;100887.02;108086;1253;75051;-66
2023/04/17 06:23:14;;;;;;;16.70;5.80;;;;;;;23.04;28.66;100896.28;108127;1254;68409;-67
2023/04/17 06:25:42;;;;;;;12.70;5.20;;;;;;;23.17;28.39;100894.76;107941;1258;73520;-67
2023/04/17 06:28:12;;;;;;;10.90;5.30;;;;;;;23.66;28.41;100896.11;108114;1254;60243;-67
2023/04/17 06:30:40;;;;;;;11.70;5.00;;;;;;;24.08;27.54;100902.18;108032;1254;60274;-67
2023/04/17 06:33:08;;;;;;;11.40;5.10;;;;;;;24.02;27.21;100899.80;107996;1254;74999;-67
2023/04/17 06:35:37;;;;;;;11.90;6.00;;;;;;;24.03;27.06;100903.29;107972;1254;69888;-68
2023/04/17 06:38:21;;;;;;;12.10;5.30;;;;;;;23.76;27.46;100904.02;107962;1260;72065;-66
2023/04/17 06:40:49;;;;;;;11.90;5.50;;;;;;;23.82;27.32;100899.62;107975;1254;60306;-72
2023/04/17 06:43:19;;;;;;;16.60;5.80;;;;;;;23.68;27.81;100901.98;108049;1254;60615;-68
2023/04/17 06:45:47;;;;;;;10.40;5.20;;;;;;;23.92;27.34;100906.86;108153;1254;73824;-67
2023/04/17 06:48:16;;;;;;;9.70;5.00;;;;;;;23.89;26.80;100906.43;108178;1256;70619;-67
2023/04/17 06:50:44;;;;;;;14.00;5.00;;;;;;;24.16;26.13;100906.40;108196;1254;72826;-66
2023/04/17 06:53:13;;;;;;;9.80;5.20;;;;;;;24.19;25.71;100906.88;108155;1257;60290;-67
2023/04/17 06:55:41;;;;;;;15.80;5.90;;;;;;;24.27;26.12;100904.78;108224;1253;60319;-67
2023/04/17 06:58:09;;;;;;;17.20;6.20;;;;;;;24.37;26.31;100911.52;108242;1254;74733;-67
2023/04/17 07:00:36;;;;;;;11.80;6.60;;;;;;;24.91;26.17;100910.91;108244;1253;70057;-66
2023/04/17 07:03:05;;;;;;;11.20;5.70;;;;;;;24.83;26.24;100917.41;108204;1253;72708;-67
2023/04/17 07:05:34;;;;;;;14.80;6.30;;;;;;;24.68;25.87;100911.05;108153;1253;61706;-67
2023/04/17 07:08:02;;;;;;;13.00;6.00;;;;;;;25.04;25.59;100909.29;108170;1254;60325;-66
2023/04/17 07:10:30;;;;;;;13.30;6.00;;;;;;;25.18;24.98;100909.88;108130;1256;74059;-67
2023/04/17 07:12:59;;;;;;;17.60;6.10;;;;;;;25.00;24.73;100918.62;108173;1257;72026;-67
2023/04/17 07:15:30;;;;;;;15.00;5.80;;;;;;;25.03;24.51;100916.02;108191;1256;72740;-67
2023/04/17 07:17:58;;;;;;;14.00;6.30;;;;;;;25.18;24.52;100913.34;108216;1256;61599;-67
2023/04/17 07:20:27;;;;;;;11.20;5.50;;;;;;;25.36;24.33;100915.36;108247;1253;61428;-66
2023/04/17 07:22:55;;;;;;;12.10;5.90;;;;;;;25.28;24.42;100917.84;108242;1254;73694;-66
2023/04/17 07:25:23;;;;;;;13.30;6.20;;;;;;;25.11;24.55;100919.81;108181;1257;70708;-66
2023/04/17 07:27:52;;;;;;;11.70;6.00;;;;;;;24.97;24.84;100920.10;108220;1256;72326;-66
2023/04/17 07:30:20;;;;;;;10.50;5.40;;;;;;;24.59;25.17;100918.98;108257;1252;60406;-66
2023/04/17 07:32:48;;;;;;;9.00;5.20;;;;;;;24.91;24.89;100920.13;108168;1253;60453;-65
2023/04/17 07:35:16;;;;;;;9.40;4.90;;;;;;;25.10;25.01;100921.70;108182;1254;74739;-69
2023/04/17 07:37:44;;;;;;;13.30;5.40;;;;;;;25.03;24.23;100921.77;108242;1254;70084;-66
2023/04/17 07:40:13;;;;;;;10.30;4.80;;;;;;;24.93;24.23;100919.40;108160;1253;72850;-66
2023/04/17 07:42:41;;;;;;;14.00;5.10;;;;;;;24.49;24.48;100921.99;108213;1253;60176;-66
2023/04/17 07:45:10;;;;;;;13.70;5.60;;;;;;;24.54;24.76;100922.86;108222;1253;60764;-67
2023/04/17 07:47:38;;;;;;;11.10;5.00;;;;;;;24.99;24.79;100924.27;108205;1253;74053;-67
2023/04/17 07:50:06;;;;;;;10.80;5.10;;;;;;;25.09;24.67;100926.34;108180;1253;70497;-67
2023/04/17 07:52:34;;;;;;;14.50;5.20;;;;;;;25.03;24.32;100924.88;108249;1254;73167;-67
2023/04/17 07:55:03;;;;;;;10.80;4.80;;;;;;;25.13;24.56;100929.61;108191;1257;60283;-66
2023/04/17 07:57:31;;;;;;;12.70;5.20;;;;;;;25.16;24.29;100924.48;108140;1253;60435;-67
2023/04/17 07:59:59;;;;;;;11.50;5.20;;;;;;;24.95;24.48;100925.21;108128;1256;73922;-67
2023/04/17 08:02:28;;;;;;;8.80;4.90;;;;;;;25.18;24.54;100926.27;108108;1254;68552;-67
2023/04/17 08:04:57;;;;;;;12.40;4.90;;;;;;;25.27;23.73;100924.05;108096;1254;73916;-67
2023/04/17 08:07:25;;;;;;;12.30;5.10;;;;;;;25.44;23.82;100918.24;108140;1254;61674;-67
2023/04/17 08:09:54;;;;;;;8.30;4.60;;;;;;;25.46;23.53;100916.85;108090;1254;60297;-68
2023/04/17 08:12:22;;;;;;;8.60;4.50;;;;;;;25.63;23.77;100912.28;108074;1254;73775;-67
2023/04/17 08:14:50;;;;;;;12.80;5.10;;;;;;;25.81;23.57;100907.30;108046;1254;69808;-67
2023/04/17 08:17:21;;;;;;;9.80;4.50;;;;;;;25.72;23.52;100908.63;108028;1255;70671;-67
2023/04/17 08:19:52;;;;;;;10.30;4.50;;;;;;;25.76;23.75;100903.56;108028;1254;60366;-67
2023/04/17 08:22:22;;;;;;;7.90;4.30;;;;;;;25.93;24.08;100905.73;108072;1254;60286;-67
2023/04/17 08:24:56;;;;;;;15.00;4.90;;;;;;;25.79;24.11;100903.34;108058;1256;74958;-67
2023/04/17 08:27:24;;;;;;;8.50;4.60;;;;;;;26.04;23.65;100903.48;108147;1254;70215;-66
2023/04/17 08:29:52;;;;;;;8.70;4.70;;;;;;;26.23;23.00;100895.84;108019;1254;72267;-67
2023/04/17 08:32:21;;;;;;;13.10;4.70;;;;;;;26.87;22.44;100900.41;108058;1254;60663;-67
2023/04/17 08:34:49;;;;;;;10.60;4.60;;;;;;;27.04;22.74;100900.23;108051;1253;60320;-67
2023/04/17 08:37:17;;;;;;;11.20;4.90;;;;;;;27.63;22.35;100890.25;108039;1253;74874;-67
2023/04/17 08:39:44;;;;;;;7.20;4.40;;;;;;;28.00;21.89;100891.38;108019;1255;69445;-68
2023/04/17 08:42:13;;;;;;;12.50;4.00;;;;;;;27.75;21.42;100888.98;108150;1257;72658;-68
2023/04/17 08:44:45;;;;;;;7.40;3.80;;;;;;;27.88;21.56;100885.23;108103;1256;61390;-67
2023/04/17 08:47:18;;;;;;;9.00;3.90;;;;;;;28.00;21.14;100889.81;108061;1253;61114;-68
2023/04/17 08:49:49;;;;;;;10.40;3.90;;;;;;;28.21;20.90;100885.85;107998;1254;73526;-67
2023/04/17 08:52:17;;;;;;;7.80;4.00;;;;;;;27.99;21.16;100884.98;108098;1254;71126;-68
2023/04/17 08:54:45;;;;;;;9.90;4.20;;;;;;;28.33;21.27;100886.28;108044;1257;73877;-68
2023/04/17 08:57:17;;;;;;;6.10;3.50;;;;;;;28.91;20.58;100889.77;108287;1252;60422;-67
2023/04/17 08:59:45;;;;;;;8.20;3.30;;;;;;;29.00;20.54;100892.04;108319;1254;61050;-67
2023/04/17 09:02:13;;;;;;;6.90;3.60;;;;;;;28.63;20.24;100893.92;108283;1254;74184;-67
2023/04/17 09:04:43;;;;;;;7.00;3.60;;;;;;;28.32;20.45;100895.08;108308;1254;70226;-66
2023/04/17 09:07:12;;;;;;;7.60;2.90;;;;;;;27.96;20.99;100895.75;108293;1253;73697;-68
2023/04/17 09:09:47;;;;;;;7.40;3.20;;;;;;;27.56;21.19;100897.99;108264;1253;60361;-67
2023/04/17 09:12:17;;;;;;;7.60;3.30;;;;;;;27.24;21.11;100897.09;108304;1253;60345;-67
2023/04/17 09:14:45;;;;;;;8.20;3.40;;;;;;;26.73;22.08;100895.95;108329;1253;71539;-68
2023/04/17 09:17:16;;;;;;;7.10;3.70;;;;;;;26.93;22.11;100898.73;108316;1253;70231;-66
2023/04/17 09:20:07;;;;;;;6.80;3.80;;;;;;;26.65;22.21;100895.91;108250;1253;72094;-66
2023/04/17 09:22:36;;;;;;;12.10;3.70;;;;;;;26.41;22.54;100895.27;108328;1253;60179;-66
2023/04/17 09:25:18;;;;;;;7.80;3.90;;;;;;;26.67;22.81;100891.14;108199;1254;60656;-67
2023/04/17 09:27:46;;;;;;;9.20;4.10;;;;;;;26.52;22.79;100888.48;108206;1254;75130;-68
2023/04/17 09:30:14;;;;;;;8.40;3.50;;;;;;;26.26;22.77;100883.73;108263;1254;70936;-67
2023/04/17 09:32:42;;;;;;;9.30;3.60;;;;;;;25.98;23.22;100883.02;108251;1252;72250;-68
2023/04/17 09:35:26;;;;;;;6.50;3.30;;;;;;;26.06;23.30;100884.58;107959;1259;60067;-67
2023/04/17 09:37:57;;;;;;;11.30;3.40;;;;;;;26.00;23.33;100882.39;108107;1253;61510;-67
2023/04/17 09:40:27;;;;;;;7.40;3.50;;;;;;;26.15;22.93;100885.52;108269;1254;72547;-67
2023/04/17 09:43:06;;;;;;;7.50;3.60;;;;;;;26.44;23.07;100876.27;108234;1253;69812;-67
2023/04/17 09:45:40;;;;;;;;;;;;;;;26.13;23.20;100876.17;108221;1254;71405;-64
2023/04/17 09:48:11;;;;;;;8.70;4.00;;;;;;;26.39;23.12;100873.06;108235;1254;61447;-67
2023/04/17 09:50:39;;;;;;;8.10;3.20;;;;;;;26.68;22.74;100871.86;108277;1254;60635;-66
2023/04/17 09:53:07;;;;;;;5.70;3.60;;;;;;;26.99;22.55;100863.08;108196;1254;74345;-65
2023/04/17 09:55:36;;;;;;;13.20;3.60;;;;;;;26.81;22.15;100865.46;108002;1253;70861;-65
2023/04/17 09:58:06;;;;;;;7.20;3.70;;;;;;;26.86;22.14;100864.66;107911;1254;72071;-68
2023/04/17 10:00:35;;;;;;;8.50;3.00;;;;;;;26.93;22.03;100858.39;108147;1253;61360;-66
2023/04/17 10:03:03;;;;;;;9.00;3.30;;;;;;;26.78;22.01;100859.76;108033;1253;60127;-67
2023/04/17 10:05:32;;;;;;;8.50;2.90;;;;;;;26.70;21.67;100865.77;108102;1254;74096;-64
2023/04/17 10:08:00;;;;;;;7.00;3.00;;;;;;;26.72;21.53;100870.86;108143;1254;69501;-66
2023/04/17 10:10:32;;;;;;;9.60;3.00;;;;;;;27.02;21.69;100866.36;108043;1254;72964;-67
2023/04/17 10:13:02;;;;;;;4.70;2.80;;;;;;;26.89;21.52;100860.73;108165;1254;59923;-67
2023/04/17 10:15:30;;;;;;;6.40;2.90;;;;;;;27.07;21.75;100859.22;108065;1253;60471;-66
2023/04/17 10:18:19;;;;;;;10.20;3.00;;;;;;;27.47;21.23;100859.02;108023;1254;72074;-66
2023/04/17 10:20:48;;;;;;;5.60;2.90;;;;;;;27.57;21.09;100853.55;108010;1254;69529;-67
2023/04/17 10:23:25;;;;;;;6.40;2.70;;;;;;;28.12;20.95;100849.77;108141;1253;71814;-67
2023/04/17 10:26:24;;;;;;;4.40;2.70;;;;;;;28.61;20.70;100851.38;108057;1254;60426;-67
2023/04/17 10:28:53;;;;;;;6.00;2.70;;;;;;;28.88;20.48;100846.06;108080;1254;61590;-66
2023/04/17 10:31:22;;;;;;;10.60;3.30;;;;;;;29.14;20.19;100846.27;108102;1253;73042;-68
2023/04/17 10:33:53;;;;;;;8.20;4.00;;;;;;;29.22;20.29;100843.13;108077;1254;70097;-67
2023/04/17 10:36:37;;;;;;;;;;;;;;;29.90;20.20;100834.44;108091;1254;73818;-68
2023/04/17 10:39:11;;;;;;;7.30;3.20;;;;;;;30.09;19.42;100835.36;108043;1254;59615;-67
2023/04/17 10:42:00;;;;;;;6.70;3.10;;;;;;;30.45;19.53;100833.59;108051;1253;60248;-68
2023/04/17 10:44:33;;;;;;;6.20;3.30;;;;;;;30.32;19.04;100835.85;108021;1253;75065;-67
2023/04/17 10:47:08;;;;;;;6.30;3.20;;;;;;;29.89;19.84;100828.44;108075;1253;71573;-68
2023/04/17 10:49:50;;;;;;;6.30;2.90;;;;;;;29.97;19.43;100832.80;108091;1254;71453;-67
2023/04/17 10:52:40;;;;;;;6.70;2.60;;;;;;;29.79;19.45;100832.00;108062;1253;60349;-67
2023/04/17 10:55:14;;;;;;;5.90;2.60;;;;;;;29.78;19.80;100830.45;108103;1253;60313;-67
2023/04/17 10:57:55;;;;;;;4.90;3.10;;;;;;;30.32;19.27;100827.03;108235;1256;74096;-68
2023/04/17 11:00:36;;;;;;;6.80;2.40;;;;;;;30.61;18.91;100828.20;108212;1253;70605;-65
2023/04/17 11:03:05;;;;;;;8.80;2.40;;;;;;;30.23;18.36;100827.11;108243;1254;73577;-67
2023/04/17 11:05:34;;;;;;;5.90;2.00;;;;;;;30.03;18.17;100831.28;108267;1255;61412;-67
2023/04/17 11:08:03;;;;;;;6.00;2.10;;;;;;;30.01;18.12;100827.85;108239;1252;59719;-67
2023/04/17 11:10:34;;;;;;;4.70;1.90;;;;;;;30.03;18.05;100825.95;107964;1259;73570;-67
2023/04/17 11:13:02;;;;;;;3.90;1.90;;;;;;;30.13;17.87;100823.63;108389;1253;69626;-68
2023/04/17 11:15:33;;;;;;;4.90;1.90;;;;;;;30.40;17.77;100822.70;108318;1252;71972;-68
2023/04/17 11:18:01;;;;;;;4.50;2.10;;;;;;;30.44;17.82;100820.63;108268;1256;59110;-68
2023/04/17 11:20:31;;;;;;;5.60;2.20;;;;;;;30.04;17.85;100816.32;108310;1252;60852;-67
2023/04/17 11:23:02;;;;;;;5.80;2.40;;;;;;;30.05;18.22;100814.70;108323;1256;74565;-67